createdAt,value
2022-10-26T00:00:50.208Z,67.78
2022-10-26T00:03:58.216Z,68.06
2022-10-26T00:07:03.664Z,68.21
2022-10-26T00:10:11.197Z,68.45
2022-10-26T00:13:16.709Z,68.81
2022-10-26T00:16:24.567Z,68.81
2022-10-26T00:19:30.367Z,68.93
2022-10-26T00:22:35.918Z,68.97
2022-10-26T00:25:41.567Z,68.97
2022-10-26T00:28:47.060Z,69.00
2022-10-26T00:31:52.668Z,68.81
2022-10-26T00:35:06.083Z,68.52
2022-10-26T00:38:21.583Z,68.55
2022-10-26T00:41:30.249Z,68.34
2022-10-26T00:45:01.808Z,68.20
2022-10-26T00:48:12.945Z,68.20
2022-10-26T00:51:25.597Z,68.32
2022-10-26T00:54:31.315Z,68.47
2022-10-26T00:57:39.049Z,68.59
2022-10-26T01:00:45.302Z,68.39
2022-10-26T01:03:49.654Z,68.44
2022-10-26T01:06:56.344Z,68.57
2022-10-26T01:10:02.674Z,68.51
2022-10-26T01:13:08.864Z,68.40
2022-10-26T01:16:22.581Z,68.26
2022-10-26T01:19:59.744Z,68.53
2022-10-26T01:23:14.713Z,68.37
2022-10-26T01:27:02.964Z,68.27
2022-10-26T01:30:28.278Z,68.14
2022-10-26T01:33:44.373Z,67.65
2022-10-26T01:36:56.082Z,68.06
2022-10-26T01:40:10.577Z,68.14
2022-10-26T01:43:18.089Z,67.60
2022-10-26T01:46:25.519Z,67.38
2022-10-26T01:49:34.297Z,67.12
2022-10-26T01:52:40.711Z,67.03
2022-10-26T01:55:50.329Z,67.04
2022-10-26T01:59:27.815Z,67.75
2022-10-26T02:02:48.486Z,67.37
2022-10-26T02:06:08.038Z,67.42
2022-10-26T02:09:24.773Z,67.36
2022-10-26T02:12:37.014Z,67.53
2022-10-26T02:15:49.922Z,67.52
2022-10-26T02:19:03.105Z,67.44
2022-10-26T02:22:15.049Z,67.69
2022-10-26T02:25:24.957Z,67.36
2022-10-26T02:28:36.493Z,66.67
2022-10-26T02:31:45.067Z,66.21
2022-10-26T02:34:52.880Z,65.95
2022-10-26T02:38:01.334Z,65.81
2022-10-26T02:41:09.029Z,65.53
2022-10-26T02:44:21.513Z,65.49
2022-10-26T02:47:28.069Z,65.53
2022-10-26T02:50:39.400Z,65.58
2022-10-26T02:53:51.255Z,66.09
2022-10-26T02:57:00.637Z,66.55
2022-10-26T03:00:08.170Z,66.72
2022-10-26T03:03:14.762Z,67.11
2022-10-26T03:06:25.149Z,67.39
2022-10-26T03:09:30.982Z,67.67
2022-10-26T03:12:36.529Z,67.59
2022-10-26T03:15:42.715Z,68.17
2022-10-26T03:18:48.141Z,68.81
2022-10-26T03:21:53.588Z,69.38
2022-10-26T03:24:59.103Z,69.38
2022-10-26T03:28:05.989Z,69.10
2022-10-26T03:31:11.568Z,68.65
2022-10-26T03:34:17.016Z,68.19
2022-10-26T03:37:22.461Z,67.78
2022-10-26T03:40:28.010Z,67.44
2022-10-26T03:43:33.430Z,67.32
2022-10-26T03:46:38.904Z,67.17
2022-10-26T03:49:44.354Z,66.80
2022-10-26T03:52:51.365Z,66.74
2022-10-26T03:55:57.091Z,66.56
2022-10-26T03:59:02.947Z,66.62
2022-10-26T04:02:08.396Z,66.69
2022-10-26T04:05:14.395Z,66.90
2022-10-26T04:08:20.037Z,66.99
2022-10-26T04:11:25.554Z,67.06
2022-10-26T04:14:31.104Z,67.23
2022-10-26T04:17:36.653Z,67.60
2022-10-26T04:20:42.940Z,67.70
2022-10-26T04:23:46.913Z,67.29
2022-10-26T04:26:52.379Z,67.44
2022-10-26T04:29:57.929Z,67.43
2022-10-26T04:33:03.409Z,66.70
2022-10-26T04:36:10.720Z,66.32
2022-10-26T04:39:16.527Z,66.29
2022-10-26T04:42:22.073Z,67.10
2022-10-26T04:45:31.125Z,67.29
2022-10-26T04:48:36.858Z,66.63
2022-10-26T04:51:42.307Z,66.33
2022-10-26T04:54:48.059Z,66.14
2022-10-26T04:57:55.984Z,66.38
2022-10-26T05:01:05.395Z,66.23
2022-10-26T05:04:11.059Z,66.07
2022-10-26T05:07:16.606Z,66.39
2022-10-26T05:10:22.158Z,66.59
2022-10-26T05:16:38.272Z,66.27
2022-10-26T05:19:43.720Z,66.43
2022-10-26T05:22:55.006Z,66.80
2022-10-26T05:26:00.478Z,66.81
2022-10-26T05:29:05.972Z,66.76
2022-10-26T05:32:11.446Z,66.61
2022-10-26T05:35:17.329Z,67.15
2022-10-26T05:38:22.991Z,67.36
2022-10-26T05:41:28.738Z,67.65
2022-10-26T05:44:34.156Z,68.07
2022-10-26T05:47:42.316Z,67.66
2022-10-26T05:50:48.191Z,66.96
2022-10-26T05:53:55.619Z,66.91
2022-10-26T05:57:02.293Z,67.19
2022-10-26T06:00:11.597Z,67.55
2022-10-26T06:03:32.651Z,67.48
2022-10-26T06:06:45.259Z,67.34
2022-10-26T06:09:52.345Z,67.35
2022-10-26T06:12:58.941Z,67.52
2022-10-26T06:16:29.351Z,67.77
2022-10-26T06:19:48.418Z,68.02
2022-10-26T06:23:06.356Z,67.94
2022-10-26T06:26:19.226Z,67.90
2022-10-26T06:29:37.850Z,68.03
2022-10-26T06:32:45.541Z,68.20
2022-10-26T06:36:03.382Z,68.34
2022-10-26T06:39:12.128Z,68.21
2022-10-26T06:42:18.942Z,68.03
2022-10-26T06:45:25.805Z,68.34
2022-10-26T06:48:36.254Z,69.15
2022-10-26T06:51:48.269Z,69.66
2022-10-26T06:54:55.800Z,69.78
2022-10-26T06:58:02.946Z,70.10
2022-10-26T07:01:11.906Z,70.26
2022-10-26T07:04:17.482Z,70.62
2022-10-26T07:07:24.923Z,71.34
2022-10-26T07:10:30.431Z,72.07
2022-10-26T07:13:35.974Z,72.52
2022-10-26T07:16:41.523Z,72.85
2022-10-26T07:19:46.956Z,73.08
2022-10-26T07:22:56.760Z,73.34
2022-10-26T07:26:03.521Z,73.41
2022-10-26T07:29:09.148Z,73.81
2022-10-26T07:32:14.589Z,74.13
2022-10-26T07:35:20.146Z,74.30
2022-10-26T07:38:26.004Z,74.40
2022-10-26T07:41:31.477Z,74.62
2022-10-26T07:44:36.999Z,74.64
2022-10-26T07:47:42.547Z,74.63
2022-10-26T07:50:48.009Z,74.60
2022-10-26T07:53:53.408Z,74.59
2022-10-26T07:56:59.626Z,74.52
2022-10-26T08:00:05.101Z,74.50
2022-10-26T08:03:10.602Z,74.71
2022-10-26T08:06:16.561Z,74.58
2022-10-26T08:09:22.008Z,74.52
2022-10-26T08:12:27.659Z,74.28
2022-10-26T08:15:33.107Z,74.24
2022-10-26T08:18:38.560Z,74.26
2022-10-26T08:21:44.000Z,74.08
2022-10-26T08:24:49.550Z,73.89
2022-10-26T08:27:55.613Z,73.75
2022-10-26T08:31:02.393Z,73.45
2022-10-26T08:34:07.939Z,73.12
2022-10-26T08:37:13.383Z,72.95
2022-10-26T08:40:21.021Z,72.92
2022-10-26T08:43:34.783Z,72.68
2022-10-26T08:46:45.739Z,71.40
2022-10-26T08:49:59.592Z,70.82
2022-10-26T08:53:14.368Z,70.24
2022-10-26T08:56:23.065Z,70.01
2022-10-26T08:59:36.694Z,70.04
2022-10-26T09:02:42.327Z,69.41
2022-10-26T09:06:06.410Z,68.95
2022-10-26T09:09:19.028Z,68.48
2022-10-26T09:12:35.224Z,68.46
2022-10-26T09:15:58.284Z,68.22
2022-10-26T09:19:32.814Z,67.97
2022-10-26T09:22:48.823Z,67.88
2022-10-26T09:26:01.627Z,67.73
2022-10-26T09:29:12.297Z,67.25
2022-10-26T09:32:20.907Z,66.95
2022-10-26T09:38:41.335Z,66.50
2022-10-26T09:41:51.318Z,66.20
2022-10-26T09:44:59.909Z,65.52
2022-10-26T09:48:13.397Z,64.79
2022-10-26T09:51:19.815Z,64.26
2022-10-26T09:54:25.577Z,64.46
2022-10-26T09:57:31.669Z,64.58
2022-10-26T10:00:38.922Z,64.08
2022-10-26T10:03:44.396Z,63.37
2022-10-26T10:06:51.658Z,63.79
2022-10-26T10:10:16.458Z,63.09
2022-10-26T10:13:25.434Z,63.08
2022-10-26T10:16:30.937Z,63.01
2022-10-26T10:19:38.478Z,62.22
2022-10-26T10:22:57.832Z,61.95
2022-10-26T10:26:06.212Z,61.47
2022-10-26T10:29:18.531Z,61.83
2022-10-26T10:32:25.874Z,61.58
2022-10-26T10:35:33.191Z,60.59
2022-10-26T10:38:44.750Z,60.70
2022-10-26T10:41:50.281Z,60.21
2022-10-26T10:44:59.197Z,59.90
2022-10-26T10:48:14.812Z,58.98
2022-10-26T10:51:25.162Z,58.77
2022-10-26T10:54:34.286Z,59.26
2022-10-26T10:57:50.870Z,60.82
2022-10-26T11:00:57.461Z,62.22
2022-10-26T11:04:34.177Z,60.92
2022-10-26T11:07:45.917Z,57.93
2022-10-26T11:10:55.703Z,57.83
2022-10-26T11:14:07.460Z,59.16
2022-10-26T11:17:19.769Z,61.18
2022-10-26T11:20:30.439Z,61.26
2022-10-26T11:23:43.189Z,58.35
2022-10-26T11:26:54.002Z,58.06
2022-10-26T11:30:06.986Z,57.99
2022-10-26T11:33:18.132Z,56.00
2022-10-26T11:36:30.379Z,57.50
2022-10-26T11:39:43.568Z,58.01
2022-10-26T11:42:56.816Z,59.34
2022-10-26T11:46:08.333Z,59.24
2022-10-26T11:49:20.697Z,60.65
2022-10-26T11:52:30.956Z,57.07
2022-10-26T11:55:36.812Z,57.41
2022-10-26T11:58:44.060Z,57.32
2022-10-26T12:01:52.209Z,56.26
2022-10-26T12:05:03.708Z,57.07
2022-10-26T12:08:15.807Z,56.71
2022-10-26T12:11:36.257Z,57.63
2022-10-26T12:14:47.537Z,57.23
2022-10-26T12:18:02.149Z,57.13
2022-10-26T12:21:09.789Z,57.12
2022-10-26T12:24:35.500Z,54.84
2022-10-26T12:27:58.475Z,55.69
2022-10-26T12:31:34.797Z,55.94
2022-10-26T12:35:05.642Z,55.33
2022-10-26T12:38:56.657Z,56.97
2022-10-26T12:42:30.369Z,55.75
2022-10-26T12:45:35.984Z,55.39
2022-10-26T12:48:44.603Z,55.98
2022-10-26T12:51:51.448Z,55.67
2022-10-26T12:55:31.822Z,56.26
2022-10-26T12:59:14.737Z,57.41
2022-10-26T13:02:41.661Z,54.55
2022-10-26T13:06:19.568Z,54.93
2022-10-26T13:09:28.834Z,53.45
2022-10-26T13:12:48.493Z,55.72
2022-10-26T13:15:58.357Z,54.94
2022-10-26T13:19:04.201Z,54.63
2022-10-26T13:22:17.276Z,55.85
2022-10-26T13:25:26.365Z,54.75
2022-10-26T13:28:45.315Z,55.61
2022-10-26T13:31:57.799Z,54.60
2022-10-26T13:35:05.322Z,55.36
2022-10-26T13:38:12.925Z,56.58
2022-10-26T13:41:34.065Z,55.55
2022-10-26T13:44:45.836Z,53.91
2022-10-26T13:47:57.345Z,52.71
2022-10-26T13:51:07.522Z,54.30
2022-10-26T13:54:22.709Z,54.77
2022-10-26T13:57:35.165Z,54.76
2022-10-26T14:00:40.949Z,55.17
2022-10-26T14:03:45.651Z,55.05
2022-10-26T14:06:52.783Z,55.05
2022-10-26T14:09:59.796Z,55.51
2022-10-26T14:13:10.284Z,55.40
2022-10-26T14:16:20.489Z,55.71
2022-10-26T14:19:30.805Z,55.66
2022-10-26T14:22:36.354Z,56.07
2022-10-26T14:25:42.357Z,56.64
2022-10-26T14:28:55.877Z,56.07
2022-10-26T14:32:01.400Z,55.82
2022-10-26T14:35:12.304Z,56.34
2022-10-26T14:38:23.149Z,56.54
2022-10-26T14:41:30.216Z,57.32
2022-10-26T14:44:39.489Z,57.75
2022-10-26T14:47:49.772Z,57.65
2022-10-26T14:51:02.882Z,57.53
2022-10-26T14:54:22.871Z,59.13
2022-10-26T14:57:37.074Z,58.38
2022-10-26T15:00:43.441Z,59.64
2022-10-26T15:03:53.660Z,60.60
2022-10-26T15:07:10.813Z,60.86
2022-10-26T15:10:48.678Z,61.61
2022-10-26T15:13:54.973Z,64.75
2022-10-26T15:17:01.437Z,65.25
2022-10-26T15:20:15.514Z,64.34
2022-10-26T15:23:22.268Z,63.52
2022-10-26T15:26:28.286Z,62.59
2022-10-26T15:29:39.923Z,61.71
2022-10-26T15:32:45.627Z,61.41
2022-10-26T15:35:51.326Z,60.73
2022-10-26T15:38:57.272Z,60.84
2022-10-26T15:42:02.788Z,60.96
2022-10-26T15:45:18.262Z,60.29
2022-10-26T15:48:29.086Z,59.47
2022-10-26T15:51:35.614Z,60.03
2022-10-26T15:54:41.167Z,61.27
2022-10-26T15:57:47.200Z,63.51
2022-10-26T16:00:53.263Z,63.72
2022-10-26T16:03:58.933Z,63.04
2022-10-26T16:07:05.969Z,62.45
2022-10-26T16:10:23.250Z,62.04
2022-10-26T16:13:28.798Z,61.89
2022-10-26T16:16:34.351Z,61.62
2022-10-26T16:19:39.899Z,61.47
2022-10-26T16:22:48.501Z,61.42
2022-10-26T16:25:53.966Z,61.13
2022-10-26T16:28:59.408Z,61.20
2022-10-26T16:32:04.962Z,61.00
2022-10-26T16:35:12.362Z,60.79
2022-10-26T16:38:17.904Z,60.82
2022-10-26T16:44:33.687Z,60.53
2022-10-26T16:47:40.246Z,60.73
2022-10-26T16:50:45.735Z,60.72
2022-10-26T16:53:52.964Z,60.73
2022-10-26T16:56:58.575Z,61.00
2022-10-26T17:00:04.330Z,61.06
2022-10-26T17:03:09.736Z,61.08
2022-10-26T17:06:15.736Z,61.33
2022-10-26T17:09:21.125Z,61.58
2022-10-26T17:15:36.992Z,62.28
2022-10-26T17:18:43.681Z,62.08
2022-10-26T17:21:49.118Z,61.83
2022-10-26T17:24:54.668Z,61.73
2022-10-26T17:28:00.318Z,61.21
2022-10-26T17:31:07.868Z,60.77
2022-10-26T17:34:13.309Z,60.64
2022-10-26T17:37:18.899Z,60.65
2022-10-26T17:40:24.465Z,60.53
2022-10-26T17:43:32.517Z,60.60
2022-10-26T17:46:37.941Z,60.91
2022-10-26T17:49:43.369Z,61.41
2022-10-26T17:52:48.921Z,61.36
2022-10-26T17:56:02.989Z,61.09
2022-10-26T17:59:12.649Z,61.19
2022-10-26T18:02:18.242Z,61.26
2022-10-26T18:05:23.854Z,61.21
2022-10-26T18:08:33.044Z,61.04
2022-10-26T18:11:38.798Z,61.13
2022-10-26T18:14:44.347Z,61.12
2022-10-26T18:17:56.732Z,61.82
2022-10-26T18:21:06.859Z,61.63
2022-10-26T18:24:12.570Z,61.36
2022-10-26T18:27:20.294Z,61.36
2022-10-26T18:30:26.900Z,61.15
2022-10-26T18:33:32.949Z,61.18
2022-10-26T18:36:39.068Z,61.18
2022-10-26T18:39:42.981Z,61.55
2022-10-26T18:42:48.527Z,61.71
2022-10-26T18:45:54.281Z,61.63
2022-10-26T18:49:01.342Z,61.68
2022-10-26T18:52:10.262Z,61.65
2022-10-26T18:55:15.751Z,62.34
2022-10-26T18:58:21.204Z,63.61
2022-10-26T19:01:28.598Z,64.29
2022-10-26T19:04:34.338Z,64.01
2022-10-26T19:07:40.137Z,63.07
2022-10-26T19:10:45.648Z,62.73
2022-10-26T19:13:52.896Z,62.58
2022-10-26T19:16:58.378Z,62.43
2022-10-26T19:20:03.970Z,62.32
2022-10-26T19:23:09.887Z,62.06
2022-10-26T19:26:17.486Z,61.95
2022-10-26T19:29:24.733Z,61.96
2022-10-26T19:32:30.940Z,61.98
2022-10-26T19:38:42.094Z,62.77
2022-10-26T19:41:46.606Z,62.75
2022-10-26T19:44:52.113Z,62.50
2022-10-26T19:47:58.379Z,63.06
2022-10-26T19:51:02.289Z,62.50
2022-10-26T19:54:08.046Z,62.28
2022-10-26T19:57:13.588Z,61.94
2022-10-26T20:00:20.085Z,61.95
2022-10-26T20:03:26.658Z,62.26
2022-10-26T20:06:32.295Z,62.41
2022-10-26T20:09:37.738Z,62.46
2022-10-26T20:12:43.184Z,62.83
2022-10-26T20:15:49.909Z,63.69
2022-10-26T20:18:55.410Z,63.90
2022-10-26T20:22:00.945Z,63.75
2022-10-26T20:25:07.604Z,63.85
2022-10-26T20:28:13.761Z,63.55
2022-10-26T20:31:17.639Z,63.80
2022-10-26T20:34:23.115Z,64.28
2022-10-26T20:37:29.830Z,64.18
2022-10-26T20:40:36.950Z,64.11
2022-10-26T20:43:43.858Z,64.10
2022-10-26T20:46:51.256Z,63.97
2022-10-26T20:49:57.768Z,63.51
2022-10-26T20:53:12.005Z,62.89
2022-10-26T20:56:23.820Z,62.82
2022-10-26T20:59:36.539Z,63.15
2022-10-26T21:02:41.980Z,63.66
2022-10-26T21:05:48.951Z,63.90
2022-10-26T21:08:55.757Z,63.83
2022-10-26T21:12:01.225Z,62.84
2022-10-26T21:15:08.481Z,62.55
2022-10-26T21:18:13.920Z,62.32
2022-10-26T21:21:19.374Z,62.31
2022-10-26T21:24:24.886Z,62.28
2022-10-26T21:27:30.508Z,62.08
2022-10-26T21:30:36.227Z,62.04
2022-10-26T21:33:42.321Z,62.24
2022-10-26T21:36:47.839Z,62.28
2022-10-26T21:39:53.285Z,62.35
2022-10-26T21:42:58.832Z,62.37
2022-10-26T21:46:04.699Z,62.37
2022-10-26T21:49:10.137Z,62.36
2022-10-26T21:52:15.688Z,62.40
2022-10-26T21:55:21.236Z,62.29
2022-10-26T21:58:26.683Z,62.35
2022-10-26T22:01:32.305Z,62.40
2022-10-26T22:04:38.806Z,62.33
2022-10-26T22:07:44.388Z,62.22
2022-10-26T22:10:49.767Z,62.73
2022-10-26T22:13:55.715Z,63.73
2022-10-26T22:17:01.110Z,65.14
2022-10-26T22:20:08.152Z,64.85
2022-10-26T22:23:13.642Z,64.09
2022-10-26T22:26:21.240Z,63.86
2022-10-26T22:29:26.654Z,63.50
2022-10-26T22:32:32.132Z,63.25
2022-10-26T22:35:37.679Z,63.99
2022-10-26T22:38:43.810Z,63.64
2022-10-26T22:41:50.519Z,63.67
2022-10-26T22:44:55.953Z,63.41
2022-10-26T22:48:01.567Z,63.48
2022-10-26T22:51:12.111Z,63.49
2022-10-26T22:54:17.866Z,63.50
2022-10-26T22:57:23.387Z,63.20
2022-10-26T23:00:28.806Z,63.08
2022-10-26T23:03:34.382Z,62.98
2022-10-26T23:06:40.036Z,63.00
2022-10-26T23:09:45.586Z,63.02
2022-10-26T23:12:54.179Z,63.45
2022-10-26T23:16:07.869Z,63.80
2022-10-26T23:19:13.789Z,64.59
2022-10-26T23:22:19.210Z,65.08
2022-10-26T23:25:24.698Z,65.58
2022-10-26T23:28:30.350Z,65.35
2022-10-26T23:31:35.736Z,65.55
2022-10-26T23:34:41.146Z,66.17
2022-10-26T23:37:46.662Z,66.24
2022-10-26T23:40:53.848Z,66.14
2022-10-26T23:43:59.429Z,65.90
2022-10-26T23:47:04.839Z,65.86
2022-10-26T23:50:11.275Z,65.98
2022-10-26T23:53:19.354Z,66.04
2022-10-26T23:56:24.811Z,66.22
2022-10-26T23:59:30.302Z,67.44
